Plainview, TX

5:53 AM CDT on October 23, 2017 (GMT -0500)
Hale County

Weather History for KPVW - April, 2014

Change the Weather History Date:

Monday, April 7, 2014

  Actual Average Record
Temperature  
Mean Temperature 50 °F -  
Max Temperature 62 °F 73 °F 94 °F (1972)
Min Temperature 39 °F 43 °F 20 °F (1938)
Degree Days  
Heating Degree Days 15    
Moisture  
Dew Point 35 °F    
Average Humidity 63    
Maximum Humidity 96    
Minimum Humidity 27    
Precipitation  
Precipitation 0.01 in - - ()
Sea Level Pressure  
Sea Level Pressure 29.98 in    
Wind  
Wind Speed 10 mph (NNW)    
Max Wind Speed 33 mph    
Max Gust Speed 44 mph    
Visibility 10 miles    
Events      
Averages and records for this station are not official NWS values.
T = Trace of Precipitation, MM = Missing Value Source: NWS Daily Summary

Daily Weather History Graph

Daily Weather History Graph

Search for Another Location

Airport or City:

Trip Planner

Search our weather history database for the weather conditions in past years. The results will help you decide how hot, cold, wet, or windy it might be!

Date:

Astronomy

Apr. 07, 2014 Rise Set
Actual Time 7:26 AM CDT 8:12 PM CDT
Civil Twilight 7:00 AM CDT 8:37 PM CDT
Nautical Twilight 6:30 AM CDT 9:07 PM CDT
Astronomical Twilight 5:59 AM CDT 9:38 PM CDT
Moon 1:30 PM CDT (4/7) 2:43 AM CDT (4/7)
Length of Visible Light 13h 37m
Length of Day
12h 46m
First Quarter, 53% of the Moon is Illuminated
Apr 7
First Quarter
Apr 15
Full
Apr 22
Last Quarter
Apr 29
New
May 6
First Quarter

Hourly Weather History & Observations

Time (CDT) Temp. Windchill Dew Point Humidity Pressure Visibility Wind Dir Wind Speed Gust Speed Precip Events Conditions
12:15 AM 42.4 °F 39.6 °F 40.6 °F 93% 29.83 in 10.0 mi West 4.6 mph - N/A   Clear
12:35 AM 41.0 °F 38.0 °F 39.4 °F 94% 29.84 in 10.0 mi West 4.6 mph - N/A   Clear
12:55 AM 41.7 °F 38.8 °F 40.5 °F 95% 29.86 in 10.0 mi NW 4.6 mph - N/A   Clear
1:15 AM 42.3 °F 38.6 °F 41.0 °F 95% 29.86 in 10.0 mi NNW 5.8 mph - N/A   Clear
1:35 AM 42.3 °F 40.5 °F 40.6 °F 94% 29.86 in 10.0 mi NNW 3.5 mph - N/A   Clear
1:55 AM 42.1 °F 39.2 °F 40.3 °F 93% 29.86 in 10.0 mi WNW 4.6 mph - N/A   Clear
2:15 AM 39.9 °F 36.7 °F 38.3 °F 94% 29.86 in 7.0 mi West 4.6 mph - N/A   Clear
2:35 AM 39.7 °F 35.6 °F 38.5 °F 95% 29.86 in 5.0 mi West 5.8 mph - N/A   Clear
2:55 AM 39.7 °F 35.6 °F 38.7 °F 96% 29.86 in 7.0 mi NW 5.8 mph - N/A   Clear
3:15 AM 40.3 °F 37.1 °F 39.2 °F 96% 29.85 in 10.0 mi WNW 4.6 mph - N/A   Clear
3:35 AM 40.3 °F 36.3 °F 39.2 °F 96% 29.85 in 10.0 mi NW 5.8 mph - N/A   Clear
3:55 AM 39.7 °F 35.6 °F 38.7 °F 96% 29.85 in 7.0 mi WNW 5.8 mph - N/A   Clear
4:15 AM 39.7 °F 35.6 °F 38.3 °F 95% 29.86 in 7.0 mi WNW 5.8 mph - N/A   Clear
4:35 AM 39.7 °F 33.7 °F 38.7 °F 96% 29.85 in 10.0 mi NW 9.2 mph - N/A   Clear
4:55 AM 40.8 °F 35.0 °F 39.4 °F 95% 29.85 in 10.0 mi NNW 9.2 mph - N/A   Clear
5:15 AM 40.8 °F 35.0 °F 39.2 °F 94% 29.86 in 10.0 mi NW 9.2 mph - N/A   Clear
5:35 AM 39.7 °F 35.6 °F 38.3 °F 95% 29.87 in 10.0 mi NW 5.8 mph - N/A   Clear
5:55 AM 39.7 °F 34.3 °F 38.3 °F 95% 29.88 in 10.0 mi NW 8.1 mph - N/A   Clear
6:15 AM 40.8 °F 34.5 °F 38.7 °F 92% 29.88 in 10.0 mi NNW 10.4 mph - N/A   Scattered Clouds
6:35 AM 40.3 °F 33.9 °F 37.8 °F 91% 29.89 in 10.0 mi NW 10.4 mph - N/A   Clear
6:55 AM 40.3 °F 35.5 °F 37.6 °F 90% 29.90 in 10.0 mi NW 6.9 mph - N/A   Clear
7:15 AM 39.7 °F 34.9 °F 37.4 °F 91% 29.91 in 10.0 mi NW 6.9 mph - N/A   Clear
7:35 AM 40.1 °F 36.1 °F 37.0 °F 89% 29.91 in 10.0 mi NW 5.8 mph - N/A   Clear
7:55 AM 39.7 °F 34.9 °F 37.2 °F 91% 29.92 in 10.0 mi NW 6.9 mph - N/A   Clear
8:15 AM 40.8 °F 35.6 °F 38.1 °F 90% 29.93 in 10.0 mi NW 8.1 mph - N/A   Clear
8:35 AM 42.3 °F 37.3 °F 38.7 °F 87% 29.94 in 10.0 mi NW 8.1 mph - N/A   Scattered Clouds
8:55 AM 43.2 °F 37.0 °F 39.4 °F 86% 29.94 in 10.0 mi NW 11.5 mph - N/A   Overcast
9:15 AM 45.5 °F 39.6 °F 40.5 °F 83% 29.95 in 10.0 mi NNW 12.7 mph - N/A   Overcast
9:35 AM 50.0 °F - 42.3 °F 75% 29.95 in 10.0 mi NNW 16.1 mph 20.7 mph N/A   Overcast
9:55 AM 50.0 °F - 41.7 °F 73% 29.95 in 10.0 mi North 16.1 mph 20.7 mph N/A   Mostly Cloudy
10:15 AM 51.3 °F - 40.8 °F 67% 29.96 in 10.0 mi North 20.7 mph 27.6 mph N/A   Scattered Clouds
10:55 AM 51.6 °F - 39.9 °F 64% 29.97 in 10.0 mi North 19.6 mph 26.5 mph N/A   Scattered Clouds
11:15 AM 54.9 °F - 41.0 °F 60% 29.99 in 10.0 mi North 21.9 mph 28.8 mph N/A   Scattered Clouds
11:35 AM 54.9 °F - 40.1 °F 58% 29.99 in 10.0 mi North 17.3 mph 28.8 mph N/A   Clear
11:55 AM 55.4 °F - 36.7 °F 49% 29.99 in 10.0 mi North 19.6 mph 29.9 mph N/A   Clear
12:15 PM 57.4 °F - 35.2 °F 43% 29.99 in 10.0 mi North 28.8 mph 34.5 mph N/A   Clear
12:35 PM 57.4 °F - 33.3 °F 40% 30.00 in 10.0 mi NNE 20.7 mph 29.9 mph N/A   Clear
12:55 PM 57.4 °F - 35.4 °F 44% 30.00 in 10.0 mi North 23.0 mph 29.9 mph N/A   Clear
1:15 PM 59.9 °F - 35.1 °F 39% 29.99 in 10.0 mi North 23.0 mph 29.9 mph N/A   Clear
1:35 PM 59.9 °F - 34.0 °F 38% 29.99 in 10.0 mi North 23.0 mph 34.5 mph N/A   Clear
1:55 PM 59.9 °F - 32.9 °F 36% 30.00 in 10.0 mi North 20.7 mph 29.9 mph N/A   Scattered Clouds
2:15 PM 61.2 °F - 32.0 °F 33% 30.00 in 10.0 mi North 21.9 mph 31.1 mph N/A   Scattered Clouds
2:35 PM 61.2 °F - 30.6 °F 32% 30.00 in 10.0 mi North 25.3 mph 32.2 mph N/A   Clear
2:55 PM 60.6 °F - 28.6 °F 30% 30.00 in 10.0 mi North 25.3 mph 28.8 mph N/A   Scattered Clouds
3:15 PM 60.3 °F - 29.5 °F 31% 29.99 in 10.0 mi North 20.7 mph 32.2 mph N/A   Scattered Clouds
3:35 PM 60.6 °F - 26.6 °F 27% 29.99 in 10.0 mi North 21.9 mph 29.9 mph N/A   Scattered Clouds
4:15 PM 60.6 °F - 28.0 °F 29% 30.00 in 10.0 mi North 15.0 mph 28.8 mph N/A   Mostly Cloudy
4:35 PM 60.3 °F - 28.6 °F 30% 30.00 in 10.0 mi North 20.7 mph 27.6 mph N/A   Mostly Cloudy
4:55 PM 59.9 °F - 27.7 °F 29% 30.00 in 10.0 mi North 23.0 mph 28.8 mph N/A   Mostly Cloudy
5:15 PM 57.2 °F - 31.8 °F 38% 30.03 in 2.5 mi North 33.4 mph 43.7 mph N/A   Haze
5:35 PM 54.9 °F - 32.2 °F 42% 30.05 in 7.0 mi North 21.9 mph 26.5 mph N/A   Mostly Cloudy
5:55 PM 54.9 °F - 31.6 °F 41% 30.06 in 10.0 mi NNW 18.4 mph 31.1 mph N/A   Overcast
6:15 PM 57.4 °F - 30.9 °F 37% 30.05 in 10.0 mi North 15.0 mph - N/A   Scattered Clouds
6:35 PM 57.6 °F - 27.0 °F 31% 30.05 in 10.0 mi North 15.0 mph - N/A   Clear
6:55 PM 57.4 °F - 27.1 °F 31% 30.05 in 10.0 mi North 17.3 mph 20.7 mph N/A   Clear
7:15 PM 57.4 °F - 26.4 °F 31% 30.05 in 10.0 mi North 17.3 mph - N/A   Clear
7:35 PM 57.4 °F - 27.3 °F 32% 30.06 in 10.0 mi North 17.3 mph 24.2 mph N/A   Clear
7:55 PM 57.0 °F - 28.9 °F 34% 30.07 in 10.0 mi North 13.8 mph - N/A   Clear
8:15 PM 54.9 °F - 28.2 °F 36% 30.08 in 10.0 mi North 15.0 mph 19.6 mph N/A   Clear
8:35 PM 54.9 °F - 28.4 °F 36% 30.09 in 10.0 mi NNW 10.4 mph - N/A   Clear
8:55 PM 54.9 °F - 30.0 °F 39% 30.10 in 10.0 mi NNW 12.7 mph 17.3 mph N/A   Clear
9:15 PM 52.3 °F - 29.3 °F 41% 30.11 in 10.0 mi North 6.9 mph - N/A   Clear
9:35 PM 50.0 °F - 29.7 °F 46% 30.12 in 10.0 mi North 8.1 mph - N/A   Clear
9:55 PM 50.0 °F - 29.8 °F 46% 30.14 in 10.0 mi NNW 6.9 mph - N/A   Clear
10:15 PM 50.0 °F - 28.4 °F 43% 30.14 in 10.0 mi NNW 9.2 mph - N/A   Clear
10:35 PM 50.0 °F - 30.4 °F 47% 30.16 in 10.0 mi NNW 10.4 mph - N/A   Clear
10:55 PM 45.1 °F 41.4 °F 30.7 °F 57% 30.17 in 10.0 mi NW 6.9 mph - N/A   Clear
11:15 PM 45.7 °F 42.0 °F 30.4 °F 55% 30.17 in 10.0 mi NNW 6.9 mph - N/A   Clear
11:35 PM 47.3 °F - 31.1 °F 53% 30.17 in 10.0 mi NNW 10.4 mph - N/A   Clear
11:55 PM 46.9 °F - 30.9 °F 54% 30.18 in 10.0 mi NNW 8.1 mph - N/A   Clear